Time;durP1;ratioP1;P1;durP2;ratioP2;P2;SDS_P1;SDS_P2;PMS_P1;PMS_P2;Temp;Humidity;BMP_temperature;BMP_pressure;BME280_temperature;BME280_humidity;BME280_pressure;Samples;Min_cycle;Max_cycle;Signal;HPM_P1;HPM_P2
2022/08/29 00:02:10;;;;;;;7.03;2.80;;;;;;;14.01;86.07;102102.25;5071473;28;20528;-68
2022/08/29 00:04:36;;;;;;;5.30;2.28;;;;;;;14.00;86.05;102104.09;5070030;28;20028;-68
2022/08/29 00:07:02;;;;;;;6.10;2.50;;;;;;;13.95;86.32;102103.00;5071501;28;20116;-69
2022/08/29 00:09:27;;;;;;;3.38;2.22;;;;;;;13.95;86.32;102106.50;5071320;28;20040;-68
2022/08/29 00:11:53;;;;;;;9.02;2.03;;;;;;;13.92;86.38;102103.38;5071332;28;20040;-69
2022/08/29 00:14:18;;;;;;;6.72;2.05;;;;;;;13.88;86.68;102104.75;5071155;28;20028;-69
2022/08/29 00:16:44;;;;;;;7.53;2.33;;;;;;;13.83;87.14;102102.63;5071440;28;20067;-69
2022/08/29 00:19:09;;;;;;;8.00;2.58;;;;;;;13.79;87.13;102098.69;5071165;28;20028;-69
2022/08/29 00:21:35;;;;;;;5.32;1.77;;;;;;;13.77;87.48;102100.72;5071271;28;20026;-68
2022/08/29 00:24:00;;;;;;;3.70;2.10;;;;;;;13.72;87.50;102093.22;5071005;28;20044;-68
2022/08/29 00:26:26;;;;;;;10.32;3.22;;;;;;;13.68;87.54;102094.63;5070642;28;20170;-68
2022/08/29 00:28:51;;;;;;;5.85;2.50;;;;;;;13.63;87.88;102091.69;5070436;28;20032;-68
2022/08/29 00:31:17;;;;;;;4.47;1.63;;;;;;;13.52;87.88;102084.13;5070714;28;20149;-69
2022/08/29 00:33:42;;;;;;;7.25;3.13;;;;;;;13.48;88.36;102091.69;5070913;28;20097;-69
2022/08/29 00:36:08;;;;;;;8.45;2.83;;;;;;;13.40;88.39;102091.78;5070792;28;20044;-68
2022/08/29 00:38:34;;;;;;;4.43;2.38;;;;;;;13.43;87.97;102098.63;5070900;28;20030;-68
2022/08/29 00:40:59;;;;;;;4.55;2.13;;;;;;;13.44;87.82;102102.94;5070840;28;20028;-69
2022/08/29 00:43:32;;;;;;;4.60;2.30;;;;;;;13.41;87.44;102103.31;5070716;28;20082;-69
2022/08/29 00:46:17;;;;;;;3.47;2.10;;;;;;;13.40;87.01;102099.00;5070421;28;20043;-69
2022/08/29 00:48:49;;;;;;;8.80;3.22;;;;;;;13.42;87.22;102111.19;5070644;28;20020;-69
2022/08/29 00:51:18;;;;;;;5.88;2.53;;;;;;;13.40;87.12;102110.53;5070511;28;20032;-68
2022/08/29 00:53:48;;;;;;;3.17;1.98;;;;;;;13.34;86.88;102116.63;5070459;28;20063;-68
2022/08/29 00:56:15;;;;;;;5.03;2.22;;;;;;;13.25;86.45;102113.16;5070461;28;20033;-68
2022/08/29 00:58:46;;;;;;;3.97;2.28;;;;;;;13.19;87.30;102118.44;5070374;28;20107;-68
2022/08/29 01:01:12;;;;;;;7.65;2.75;;;;;;;13.10;87.38;102113.16;5070468;28;20105;-68
2022/08/29 01:03:40;;;;;;;2.92;2.42;;;;;;;13.02;86.43;102109.72;5070186;28;20036;-68
2022/08/29 01:06:05;;;;;;;4.15;2.40;;;;;;;12.90;88.08;102106.66;5070307;28;20042;-68
2022/08/29 01:08:31;;;;;;;11.90;4.32;;;;;;;12.87;89.18;102110.53;5070372;28;20637;-68
2022/08/29 01:13:43;;;;;;;5.93;2.60;;;;;;;12.83;90.92;102117.25;5070431;28;20182;-68
2022/08/29 01:16:13;;;;;;;6.00;2.42;;;;;;;12.80;91.24;102122.13;5070124;28;20029;-68
2022/08/29 01:18:41;;;;;;;8.07;3.53;;;;;;;12.78;91.25;102118.78;5070044;28;20020;-68
2022/08/29 01:21:20;;;;;;;4.30;2.17;;;;;;;12.77;89.07;102119.81;5070082;28;20024;-68
2022/08/29 01:24:15;;;;;;;5.95;2.13;;;;;;;12.72;88.28;102117.66;5070007;28;20027;-69
2022/08/29 01:26:45;;;;;;;7.85;2.45;;;;;;;12.66;89.26;102115.72;5061741;28;20252;-68
2022/08/29 01:29:11;;;;;;;5.60;2.95;;;;;;;12.58;89.30;102113.94;5069827;28;20423;-69
2022/08/29 01:31:44;;;;;;;7.15;2.75;;;;;;;12.57;90.80;102109.59;5069695;28;20067;-69
2022/08/29 01:34:10;;;;;;;8.20;3.92;;;;;;;12.58;90.93;102116.63;5069891;28;20024;-69
2022/08/29 01:36:52;;;;;;;4.65;2.80;;;;;;;12.60;90.14;102116.41;5069612;28;20063;-69
2022/08/29 01:39:21;;;;;;;7.78;2.38;;;;;;;12.52;89.82;102119.97;5069455;28;20086;-69
2022/08/29 01:41:48;;;;;;;2.60;2.25;;;;;;;12.48;89.18;102124.88;5069594;28;20123;-69
2022/08/29 01:44:19;;;;;;;4.57;2.10;;;;;;;12.44;89.75;102118.22;5069635;28;20047;-69
2022/08/29 01:46:48;;;;;;;5.82;3.05;;;;;;;12.40;91.17;102116.06;5069577;28;20476;-68
2022/08/29 01:49:15;;;;;;;6.90;3.58;;;;;;;12.36;91.25;102115.56;5069524;28;20032;-68
2022/08/29 01:51:40;;;;;;;7.47;4.70;;;;;;;12.29;92.33;102106.63;5069457;28;20056;-68
2022/08/29 01:54:08;;;;;;;5.40;2.80;;;;;;;12.27;93.11;102112.13;5069345;28;20063;-68
2022/08/29 01:56:37;;;;;;;7.93;4.30;;;;;;;12.22;93.68;102113.69;5069242;28;20108;-68
2022/08/29 01:59:05;;;;;;;13.98;6.65;;;;;;;12.19;94.65;102111.34;5069285;28;20032;-68
2022/08/29 02:01:38;;;;;;;20.58;7.18;;;;;;;12.14;94.87;102108.38;5069331;28;20028;-68
2022/08/29 02:04:05;;;;;;;21.30;9.95;;;;;;;12.12;95.06;102111.22;5069223;28;20032;-68
2022/08/29 02:06:31;;;;;;;21.33;10.38;;;;;;;12.09;95.91;102100.88;5069385;28;20094;-68
2022/08/29 02:08:56;;;;;;;20.27;8.95;;;;;;;12.10;95.51;102102.53;5069449;28;20564;-68
2022/08/29 02:11:22;;;;;;;12.52;5.05;;;;;;;12.14;94.63;102111.06;5069413;28;20059;-68
2022/08/29 02:13:55;;;;;;;18.20;6.80;;;;;;;12.14;92.93;102106.53;5069261;28;20384;-68
2022/08/29 02:16:22;;;;;;;20.45;8.15;;;;;;;12.14;92.47;102109.22;5069287;28;20158;-68
2022/08/29 02:18:48;;;;;;;21.60;9.07;;;;;;;12.16;92.82;102115.22;5069293;28;20021;-69
2022/08/29 02:21:17;;;;;;;13.02;6.28;;;;;;;12.12;92.61;102113.88;5069233;28;20043;-69
2022/08/29 02:23:43;;;;;;;18.73;9.40;;;;;;;12.06;92.64;102114.59;5069087;28;20028;-68
2022/08/29 02:26:09;;;;;;;20.80;10.52;;;;;;;12.04;95.12;102116.63;5069164;28;20058;-68
2022/08/29 02:28:36;;;;;;;20.45;10.30;;;;;;;11.98;95.61;102111.97;5069176;28;20125;-68
2022/08/29 02:31:04;;;;;;;14.57;7.28;;;;;;;11.94;94.85;102116.00;5067660;28;20085;-68
2022/08/29 02:33:30;;;;;;;22.25;9.73;;;;;;;11.97;94.93;102113.81;5068881;28;20040;-69
2022/08/29 02:35:56;;;;;;;22.65;9.50;;;;;;;11.96;94.66;102117.47;5068823;28;20032;-69
2022/08/29 02:38:21;;;;;;;27.40;14.55;;;;;;;12.03;95.03;102114.97;5069125;28;20020;-68
2022/08/29 02:40:49;;;;;;;18.33;9.27;;;;;;;12.04;93.98;102111.25;5069030;28;20032;-68
2022/08/29 02:43:17;;;;;;;26.27;10.20;;;;;;;12.04;93.20;102122.78;5069003;28;20056;-68
2022/08/29 02:45:42;;;;;;;24.05;13.80;;;;;;;12.03;92.80;102125.66;5068883;28;20082;-68
2022/08/29 02:48:10;;;;;;;29.90;15.32;;;;;;;11.99;93.11;102121.66;5068915;28;20036;-69
2022/08/29 02:50:42;;;;;;;25.83;13.55;;;;;;;11.99;93.94;102129.66;5070118;28;20025;-69
2022/08/29 02:53:08;;;;;;;;;;;;;;;12.04;92.02;102132.66;5073226;28;20020;-68
2022/08/29 02:55:33;;;;;;;45.60;18.60;;;;;;;12.01;93.40;102133.84;5072842;28;19958;-68
2022/08/29 02:57:59;;;;;;;26.17;14.35;;;;;;;12.04;93.35;102144.19;5072806;28;20150;-68
2022/08/29 03:00:26;;;;;;;40.60;18.48;;;;;;;12.06;93.77;102130.66;5072604;28;20079;-68
2022/08/29 03:02:54;;;;;;;32.47;17.42;;;;;;;12.07;94.57;102127.78;5072757;28;20044;-69
2022/08/29 03:05:26;;;;;;;33.75;19.10;;;;;;;12.05;93.76;102126.28;5072481;28;20056;-69
2022/08/29 03:07:52;;;;;;;30.25;15.38;;;;;;;12.07;93.34;102127.78;5072315;28;20032;-68
2022/08/29 03:10:18;;;;;;;24.30;11.38;;;;;;;12.03;93.31;102122.97;5072497;28;20109;-68
2022/08/29 03:12:45;;;;;;;21.80;11.10;;;;;;;12.00;93.29;102121.50;5072419;28;20445;-68
2022/08/29 03:15:11;;;;;;;28.90;13.48;;;;;;;11.97;93.23;102123.66;5072448;28;20108;-68
2022/08/29 03:17:36;;;;;;;24.92;12.82;;;;;;;11.96;92.91;102119.34;5072277;28;20119;-68
2022/08/29 03:20:03;;;;;;;28.23;13.25;;;;;;;11.95;93.15;102115.81;5071049;28;20021;-68
2022/08/29 03:22:29;;;;;;;24.23;14.13;;;;;;;11.89;93.65;102116.50;5072188;28;20034;-68
2022/08/29 03:24:54;;;;;;;29.27;17.20;;;;;;;11.81;94.14;102111.16;5072158;28;20127;-68
2022/08/29 03:27:21;;;;;;;31.95;16.42;;;;;;;11.78;94.18;102112.34;5072102;28;20028;-68
2022/08/29 03:29:47;;;;;;;28.13;16.25;;;;;;;11.81;93.83;102128.03;5072198;28;20044;-68
2022/08/29 03:32:12;;;;;;;28.30;15.60;;;;;;;11.79;93.56;102115.88;5071824;28;20060;-69
2022/08/29 03:34:38;;;;;;;26.90;15.52;;;;;;;11.78;93.69;102114.19;5071921;28;20036;-69
2022/08/29 03:37:04;;;;;;;23.50;13.48;;;;;;;11.74;93.39;102113.72;5072036;28;20115;-69
2022/08/29 03:39:29;;;;;;;27.60;13.88;;;;;;;11.74;93.93;102121.72;5072000;28;20054;-68
2022/08/29 03:41:55;;;;;;;28.23;14.80;;;;;;;11.72;94.26;102118.41;5070548;28;20038;-68
2022/08/29 03:44:22;;;;;;;24.42;13.23;;;;;;;11.68;93.93;102108.22;5071755;28;20029;-68
2022/08/29 03:46:47;;;;;;;32.83;15.27;;;;;;;11.69;94.55;102108.06;5071800;28;20025;-68
2022/08/29 03:49:14;;;;;;;31.55;16.55;;;;;;;11.63;94.63;102111.41;5071766;28;20090;-68
2022/08/29 03:51:40;;;;;;;28.27;15.43;;;;;;;11.59;95.16;102110.09;5071658;28;20074;-68
2022/08/29 03:54:05;;;;;;;26.38;15.82;;;;;;;11.54;95.72;102104.44;5071678;28;20021;-68
2022/08/29 03:56:31;;;;;;;32.00;17.80;;;;;;;11.54;96.47;102101.75;5071782;28;20491;-68
2022/08/29 03:58:57;;;;;;;28.98;17.00;;;;;;;11.50;96.55;102103.97;5071639;28;20414;-68
2022/08/29 04:01:27;;;;;;;28.17;17.05;;;;;;;11.51;96.60;102100.28;5071430;28;20051;-68
2022/08/29 04:03:54;;;;;;;29.55;14.90;;;;;;;11.55;95.93;102093.59;5071541;28;20069;-68
2022/08/29 04:06:21;;;;;;;34.63;17.48;;;;;;;11.60;96.35;102093.03;5071550;28;20028;-68
2022/08/29 04:08:47;;;;;;;36.15;18.40;;;;;;;11.54;96.57;102081.22;5071546;28;20043;-69
2022/08/29 04:11:14;;;;;;;31.98;17.73;;;;;;;11.53;96.62;102086.75;5071341;28;20033;-69
2022/08/29 04:13:40;;;;;;;27.42;15.98;;;;;;;11.50;96.51;102087.94;5071281;28;20365;-69
2022/08/29 04:16:14;;;;;;;34.05;17.90;;;;;;;11.49;96.85;102098.78;5071315;28;20096;-69
2022/08/29 04:18:40;;;;;;;28.88;17.92;;;;;;;11.47;96.32;102085.56;5071338;28;20031;-68
2022/08/29 04:21:07;;;;;;;27.27;16.23;;;;;;;11.48;96.17;102089.09;5069979;28;20484;-69
2022/08/29 04:23:34;;;;;;;28.08;16.88;;;;;;;11.48;96.00;102094.44;5071061;28;20025;-68
2022/08/29 04:26:00;;;;;;;24.75;15.95;;;;;;;11.39;95.46;102082.94;5071015;28;20047;-68
2022/08/29 04:28:25;;;;;;;34.42;17.33;;;;;;;11.39;95.34;102085.59;5070965;28;20111;-68
2022/08/29 04:30:51;;;;;;;27.20;17.23;;;;;;;11.36;95.03;102089.44;5070995;28;20048;-69
2022/08/29 04:33:18;;;;;;;31.70;21.20;;;;;;;11.33;96.21;102092.47;5070970;28;20024;-68
2022/08/29 04:35:43;;;;;;;31.30;19.90;;;;;;;11.32;96.79;102092.66;5070807;28;20020;-69
2022/08/29 04:38:09;;;;;;;30.60;17.88;;;;;;;11.30;96.53;102092.00;5070733;28;20421;-68
2022/08/29 04:40:37;;;;;;;30.92;18.55;;;;;;;11.30;96.89;102094.66;5070784;28;20037;-69
2022/08/29 04:43:02;;;;;;;30.08;17.02;;;;;;;11.29;96.08;102099.16;5070708;28;20085;-68
2022/08/29 04:45:27;;;;;;;29.05;15.90;;;;;;;11.29;96.39;102087.63;5070758;28;20036;-68
2022/08/29 04:47:53;;;;;;;28.52;16.02;;;;;;;11.25;96.62;102100.50;5070720;28;20037;-68
2022/08/29 04:50:22;;;;;;;39.67;20.58;;;;;;;11.23;96.84;102099.00;5070591;28;20041;-69
2022/08/29 04:52:48;;;;;;;33.90;18.08;;;;;;;11.21;96.66;102109.00;5070532;28;20064;-69
2022/08/29 04:55:15;;;;;;;32.60;17.92;;;;;;;11.20;97.26;102100.19;5070473;28;20024;-68
2022/08/29 04:57:41;;;;;;;37.45;22.77;;;;;;;11.21;97.49;102103.69;5070406;28;20127;-68
2022/08/29 05:00:12;;;;;;;41.08;22.48;;;;;;;11.22;97.46;102108.03;5069153;28;20103;-68
2022/08/29 05:02:38;;;;;;;;;;;;;;;11.25;95.41;102108.50;5070833;28;20043;-68
2022/08/29 05:05:05;;;;;;;32.33;17.60;;;;;;;11.22;95.63;102116.88;5070229;28;19913;-68
2022/08/29 05:07:31;;;;;;;30.08;15.25;;;;;;;11.22;95.21;102108.03;5070152;28;21058;-68
2022/08/29 05:10:00;;;;;;;43.22;23.58;;;;;;;11.26;95.99;102117.34;5070176;28;20024;-68
2022/08/29 05:12:28;;;;;;;37.05;21.02;;;;;;;11.30;96.16;102113.34;5070182;28;20028;-68
2022/08/29 05:14:54;;;;;;;36.38;20.65;;;;;;;11.32;96.60;102114.84;5069569;28;20055;-68
2022/08/29 05:17:20;;;;;;;40.00;22.58;;;;;;;11.29;97.00;102111.66;5070100;28;20032;-69
2022/08/29 05:19:45;;;;;;;38.45;20.17;;;;;;;11.25;97.09;102116.53;5070026;28;20039;-68
2022/08/29 05:22:16;;;;;;;47.05;23.35;;;;;;;11.19;97.98;102117.22;5069793;28;20380;-69
2022/08/29 05:24:43;;;;;;;33.20;20.60;;;;;;;11.18;97.89;102107.50;5069614;28;20078;-69
2022/08/29 05:27:11;;;;;;;36.03;19.15;;;;;;;11.22;98.27;102122.22;5069844;28;20036;-68
2022/08/29 05:29:41;;;;;;;37.33;19.63;;;;;;;11.29;98.16;102128.56;5069637;28;20029;-68
2022/08/29 05:32:09;;;;;;;45.13;19.67;;;;;;;11.37;97.41;102125.84;5069509;28;20408;-69
2022/08/29 05:34:35;;;;;;;40.88;20.13;;;;;;;11.41;97.25;102126.34;5069533;28;20032;-69
2022/08/29 05:37:03;;;;;;;36.00;21.38;;;;;;;11.45;97.32;102137.50;5068219;28;20376;-69
2022/08/29 05:39:29;;;;;;;37.03;18.08;;;;;;;11.49;97.51;102131.66;5069574;28;20508;-69
2022/08/29 05:41:55;;;;;;;45.70;18.38;;;;;;;11.56;97.75;102135.31;5069730;28;20166;-69
2022/08/29 05:44:20;;;;;;;33.75;16.88;;;;;;;11.63;98.27;102130.09;5068220;28;20407;-69
2022/08/29 05:46:47;;;;;;;33.13;18.25;;;;;;;11.70;98.37;102125.75;5069387;28;20025;-69
2022/08/29 05:49:13;;;;;;;27.23;16.83;;;;;;;11.80;98.27;102126.38;5069300;28;20041;-68
2022/08/29 05:51:39;;;;;;;25.90;13.50;;;;;;;11.89;97.87;102129.88;5069342;28;20063;-69
2022/08/29 05:54:05;;;;;;;33.25;16.05;;;;;;;11.98;97.50;102128.00;5069367;28;20437;-68
2022/08/29 05:56:30;;;;;;;27.20;14.05;;;;;;;12.07;97.19;102141.16;5069389;28;20078;-69
2022/08/29 05:58:55;;;;;;;26.90;12.98;;;;;;;12.14;97.36;102143.16;5067471;28;20930;-71
2022/08/29 06:01:30;;;;;;;31.67;15.45;;;;;;;12.21;97.85;102150.28;5064573;28;20967;-69
2022/08/29 06:03:56;;;;;;;29.63;16.08;;;;;;;12.29;97.74;102152.09;5064629;28;20040;-69
2022/08/29 06:06:24;;;;;;;29.90;12.68;;;;;;;12.35;98.05;102156.72;5064931;28;20067;-69
2022/08/29 06:08:51;;;;;;;22.75;11.90;;;;;;;12.42;97.87;102157.69;5064624;28;20028;-69
2022/08/29 06:11:20;;;;;;;24.40;11.95;;;;;;;12.49;96.97;102150.59;5064644;28;20077;-70
2022/08/29 06:13:45;;;;;;;26.05;13.18;;;;;;;12.63;97.20;102165.09;5066104;28;20032;-68
2022/08/29 06:16:14;;;;;;;30.25;11.48;;;;;;;12.72;96.42;102161.31;5069025;28;20040;-69
2022/08/29 06:18:40;;;;;;;22.52;9.57;;;;;;;12.81;95.58;102148.75;5068667;28;20037;-70
2022/08/29 06:21:06;;;;;;;22.70;11.65;;;;;;;12.96;95.88;102147.94;5068826;28;20028;-68
2022/08/29 06:23:31;;;;;;;27.10;11.95;;;;;;;13.06;96.91;102153.88;5067299;28;20043;-71
2022/08/29 06:25:57;;;;;;;24.60;11.05;;;;;;;13.08;95.71;102149.19;5070575;28;20032;-69
2022/08/29 06:28:26;;;;;;;16.83;9.73;;;;;;;13.15;96.42;102156.31;5072987;28;20037;-70
2022/08/29 06:30:51;;;;;;;21.92;10.40;;;;;;;13.24;96.50;102161.59;5072622;28;20132;-70
2022/08/29 06:33:16;;;;;;;17.92;10.10;;;;;;;13.29;96.19;102152.00;5073043;28;20151;-70
2022/08/29 06:35:42;;;;;;;21.27;11.18;;;;;;;13.35;95.62;102153.13;5072618;28;20076;-69
2022/08/29 06:38:07;;;;;;;19.42;10.05;;;;;;;13.43;95.46;102152.22;5072765;28;20064;-69
2022/08/29 06:40:32;;;;;;;19.17;10.07;;;;;;;13.50;95.11;102161.19;5072627;28;20075;-69
2022/08/29 06:42:58;;;;;;;18.10;9.20;;;;;;;13.58;94.96;102159.25;5072719;28;20055;-69
2022/08/29 06:45:23;;;;;;;42.60;9.23;;;;;;;13.66;94.88;102160.19;5072689;28;20283;-69
2022/08/29 06:47:48;;;;;;;19.00;8.40;;;;;;;13.70;94.93;102166.81;5072589;28;20055;-69
2022/08/29 06:50:15;;;;;;;22.42;8.18;;;;;;;13.71;95.33;102165.81;5072498;28;20086;-69
2022/08/29 06:52:40;;;;;;;15.95;7.43;;;;;;;13.75;94.74;102167.09;5072521;28;20025;-69
2022/08/29 06:55:10;;;;;;;17.40;7.85;;;;;;;13.79;94.73;102171.91;5072521;28;20039;-69
2022/08/29 06:57:36;;;;;;;25.73;8.25;;;;;;;13.85;94.23;102175.69;5072294;28;20027;-71
2022/08/29 07:00:06;;;;;;;31.02;8.43;;;;;;;13.94;95.27;102177.28;5072398;28;20040;-69
2022/08/29 07:02:31;;;;;;;28.42;9.90;;;;;;;14.00;95.45;102176.53;5072241;28;20040;-70
2022/08/29 07:04:56;;;;;;;23.00;8.13;;;;;;;14.05;93.42;102167.94;5072011;28;20127;-70
2022/08/29 07:07:22;;;;;;;23.77;7.90;;;;;;;14.13;92.20;102169.66;5072359;28;20032;-70
2022/08/29 07:09:47;;;;;;;18.65;8.13;;;;;;;14.21;91.73;102177.59;5072123;28;20029;-70
2022/08/29 07:12:12;;;;;;;19.10;7.38;;;;;;;14.31;92.11;102178.16;5072269;28;20047;-70
2022/08/29 07:14:38;;;;;;;15.82;7.18;;;;;;;14.38;91.67;102176.38;5070718;28;20028;-69
2022/08/29 07:17:03;;;;;;;21.67;9.15;;;;;;;14.45;91.57;102184.50;5071860;28;20115;-69
2022/08/29 07:19:29;;;;;;;22.48;9.25;;;;;;;14.54;91.00;102180.72;5071979;28;20035;-70
2022/08/29 07:21:57;;;;;;;31.20;11.10;;;;;;;14.59;89.35;102180.97;5071784;28;20471;-69
2022/08/29 07:24:22;;;;;;;22.48;11.52;;;;;;;14.76;87.74;102176.16;5071764;28;20035;-69
2022/08/29 07:26:47;;;;;;;24.08;12.43;;;;;;;14.86;86.21;102163.25;5072200;28;20462;-68
2022/08/29 07:29:19;;;;;;;25.55;10.68;;;;;;;15.11;85.77;102176.28;5072082;28;20465;-68
2022/08/29 07:31:46;;;;;;;21.73;9.32;;;;;;;15.32;87.18;102181.59;5070241;28;20947;-69
2022/08/29 07:34:12;;;;;;;21.98;9.68;;;;;;;15.55;86.34;102172.47;5072062;28;20488;-69
2022/08/29 07:36:38;;;;;;;20.73;8.43;;;;;;;15.76;82.18;102174.28;5071390;28;20044;-70
2022/08/29 07:39:08;;;;;;;20.38;8.70;;;;;;;15.96;77.56;102171.69;5071795;28;20582;-71
2022/08/29 07:41:34;;;;;;;30.15;8.35;;;;;;;16.14;77.66;102173.84;5071822;28;20438;-70
2022/08/29 07:44:00;;;;;;;17.40;8.00;;;;;;;16.32;77.84;102167.88;5071526;28;20097;-72
2022/08/29 07:46:25;;;;;;;18.40;8.20;;;;;;;16.47;75.29;102168.53;5071855;28;20032;-73
2022/08/29 07:48:51;;;;;;;16.27;6.70;;;;;;;16.64;74.64;102167.13;5071707;28;20063;-75
2022/08/29 07:51:21;;;;;;;19.92;8.63;;;;;;;16.88;74.65;102173.00;5071483;28;20021;-74
2022/08/29 07:53:47;;;;;;;14.52;6.13;;;;;;;16.96;66.05;102171.97;5071774;28;20090;-71
2022/08/29 07:56:17;;;;;;;18.13;8.07;;;;;;;17.03;69.25;102176.34;5070337;28;20062;-67
2022/08/29 07:58:43;;;;;;;22.10;7.28;;;;;;;17.03;68.06;102170.94;5071536;28;20040;-66
2022/08/29 08:01:09;;;;;;;21.80;7.47;;;;;;;17.15;67.51;102173.00;5071510;28;20032;-66
2022/08/29 08:03:35;;;;;;;17.73;6.53;;;;;;;17.45;67.36;102158.06;5071460;28;20085;-65
2022/08/29 08:06:02;;;;;;;10.98;4.20;;;;;;;18.23;64.27;102154.47;5071393;28;20434;-66
2022/08/29 08:08:27;;;;;;;11.88;4.03;;;;;;;18.57;62.18;102161.34;5071490;28;20043;-66
2022/08/29 08:10:53;;;;;;;6.88;3.05;;;;;;;18.73;59.26;102161.84;5071314;28;20119;-65
2022/08/29 08:13:19;;;;;;;7.43;2.65;;;;;;;18.71;59.13;102158.56;5071267;28;20025;-66
2022/08/29 08:15:44;;;;;;;5.88;3.35;;;;;;;18.59;58.12;102163.81;5071203;28;20422;-65
2022/08/29 08:18:10;;;;;;;9.23;3.08;;;;;;;18.59;60.16;102166.53;5071095;28;20381;-65
2022/08/29 08:20:36;;;;;;;8.23;3.25;;;;;;;18.63;59.75;102162.34;5071106;28;20040;-65
2022/08/29 08:23:02;;;;;;;9.93;3.25;;;;;;;18.72;58.49;102161.03;5071220;28;20086;-65
2022/08/29 08:25:27;;;;;;;9.80;3.33;;;;;;;18.78;56.86;102162.06;5071244;28;20029;-65
2022/08/29 08:27:53;;;;;;;7.07;2.55;;;;;;;18.57;56.38;102164.03;5070975;28;20495;-65
2022/08/29 08:30:19;;;;;;;6.68;2.40;;;;;;;18.33;58.29;102170.22;5070886;28;20043;-65
2022/08/29 08:32:45;;;;;;;6.47;2.92;;;;;;;18.15;58.95;102168.22;5070816;28;20049;-67
2022/08/29 08:35:11;;;;;;;4.00;2.00;;;;;;;18.10;60.71;102171.59;5070711;28;20033;-67
2022/08/29 08:37:38;;;;;;;6.70;2.10;;;;;;;18.01;60.87;102166.63;5070875;28;20036;-65
2022/08/29 08:40:04;;;;;;;11.75;2.17;;;;;;;17.94;60.30;102169.34;5070732;28;20032;-65
2022/08/29 08:42:43;;;;;;;5.03;2.53;;;;;;;17.92;59.92;102166.03;5070399;28;20476;-66
2022/08/29 08:45:16;;;;;;;6.55;1.95;;;;;;;17.92;59.44;102172.28;5070638;28;20108;-67
2022/08/29 08:47:48;;;;;;;8.73;2.53;;;;;;;17.91;59.10;102172.47;5070133;28;20034;-67
2022/08/29 08:50:26;;;;;;;4.40;2.53;;;;;;;17.93;61.29;102175.81;5070431;28;20024;-66
2022/08/29 08:52:51;;;;;;;18.50;4.20;;;;;;;17.83;61.60;102183.50;5052812;28;20079;-66
2022/08/29 08:55:41;;;;;;;14.20;3.77;;;;;;;17.74;60.65;102183.72;5070418;28;20029;-66
2022/08/29 08:58:31;;;;;;;8.18;2.80;;;;;;;17.57;62.30;102168.19;5070313;28;20285;-66
2022/08/29 09:01:17;;;;;;;5.25;3.15;;;;;;;17.50;61.19;102177.13;5070379;28;20115;-66
2022/08/29 09:04:02;;;;;;;15.75;4.28;;;;;;;17.48;61.38;102181.91;5070219;28;20028;-67
2022/08/29 09:06:57;;;;;;;6.53;2.58;;;;;;;17.49;61.72;102180.84;5070254;28;20021;-66
2022/08/29 09:09:28;;;;;;;8.15;2.55;;;;;;;17.61;62.70;102181.06;5060502;28;20620;-67
2022/08/29 09:11:54;;;;;;;7.88;2.40;;;;;;;17.71;62.79;102173.34;5070068;28;20033;-68
2022/08/29 09:14:34;;;;;;;6.95;2.10;;;;;;;17.83;59.62;102184.34;5070055;28;20044;-67
2022/08/29 09:17:02;;;;;;;5.70;2.90;;;;;;;17.98;59.94;102177.88;5070023;28;20029;-67
2022/08/29 09:19:29;;;;;;;7.88;3.15;;;;;;;18.15;58.67;102181.72;5069987;28;20020;-70
2022/08/29 09:22:06;;;;;;;6.88;2.13;;;;;;;18.35;59.30;102174.34;5068816;28;20118;-71
2022/08/29 09:24:44;;;;;;;8.68;2.83;;;;;;;18.48;60.35;102180.75;5069737;28;20032;-70
2022/08/29 09:27:25;;;;;;;7.25;2.70;;;;;;;18.48;60.55;102175.34;5069863;28;20056;-72
2022/08/29 09:30:06;;;;;;;5.18;2.65;;;;;;;18.45;60.25;102183.88;5069898;28;20372;-71
2022/08/29 09:32:32;;;;;;;;;;;;;;;18.47;61.50;102179.06;5070014;28;20053;-70
2022/08/29 09:34:58;;;;;;;6.65;3.42;;;;;;;18.44;59.01;102177.63;5069785;28;19912;-71
2022/08/29 09:37:33;;;;;;;10.20;3.47;;;;;;;18.45;59.76;102173.91;5069819;28;20430;-72
2022/08/29 09:40:10;;;;;;;10.57;3.42;;;;;;;18.39;60.37;102185.56;5069547;28;20028;-70
2022/08/29 09:42:42;;;;;;;6.53;2.30;;;;;;;18.33;58.59;102181.84;5069541;28;20103;-77
2022/08/29 09:45:23;;;;;;;7.15;2.63;;;;;;;18.36;59.31;102175.19;5064257;28;20020;-72
2022/08/29 09:48:06;;;;;;;9.63;2.63;;;;;;;18.42;59.80;102176.19;5065453;28;20032;-71
2022/08/29 09:50:31;;;;;;;7.78;2.60;;;;;;;18.41;58.77;102164.56;5065166;28;20070;-67
2022/08/29 09:53:01;;;;;;;14.07;3.95;;;;;;;18.46;59.99;102167.44;5065213;28;20056;-67
2022/08/29 09:55:29;;;;;;;6.10;3.03;;;;;;;18.50;60.50;102176.78;5065130;28;20021;-65
2022/08/29 09:58:25;;;;;;;4.90;2.40;;;;;;;18.44;58.15;102176.81;5065322;28;20391;-65
2022/08/29 10:01:02;;;;;;;6.63;2.92;;;;;;;18.45;59.68;102186.59;5065407;28;20644;-67
2022/08/29 10:03:33;;;;;;;7.53;2.08;;;;;;;18.40;58.05;102174.53;5064906;28;20024;-66
2022/08/29 10:06:14;;;;;;;6.85;2.22;;;;;;;18.39;59.52;102170.19;5064889;28;20031;-66
2022/08/29 10:08:41;;;;;;;8.30;3.47;;;;;;;18.45;58.58;102178.47;5065223;28;20028;-66
2022/08/29 10:11:15;;;;;;;4.72;2.70;;;;;;;18.50;60.55;102179.47;5065096;28;20119;-65
2022/08/29 10:13:54;;;;;;;22.65;5.22;;;;;;;18.53;60.30;102172.81;5064856;28;20028;-65
2022/08/29 10:16:25;;;;;;;6.05;2.47;;;;;;;18.53;58.34;102176.34;5064949;28;20028;-65
2022/08/29 10:18:59;;;;;;;4.63;2.72;;;;;;;18.60;57.92;102171.72;5064738;28;20032;-65
2022/08/29 10:21:45;;;;;;;6.60;2.90;;;;;;;18.72;56.78;102177.25;5064863;28;20024;-67
2022/08/29 10:24:30;;;;;;;6.75;2.05;;;;;;;18.89;57.26;102165.94;5062925;28;20035;-66
2022/08/29 10:27:03;;;;;;;6.22;2.20;;;;;;;18.91;57.54;102169.25;5065074;28;20515;-68
2022/08/29 10:29:37;;;;;;;5.00;2.30;;;;;;;18.89;58.00;102166.78;5067442;28;20039;-67
2022/08/29 10:32:06;;;;;;;5.72;2.25;;;;;;;18.87;57.50;102176.16;5067398;28;20063;-68
2022/08/29 10:34:34;;;;;;;4.00;2.45;;;;;;;18.94;57.70;102169.66;5064062;28;20036;-67
2022/08/29 10:37:08;;;;;;;8.95;2.85;;;;;;;19.17;56.60;102171.72;5064727;28;20066;-65
2022/08/29 10:39:33;;;;;;;6.85;2.85;;;;;;;19.41;56.36;102164.66;5068098;28;20028;-66
2022/08/29 10:42:08;;;;;;;5.37;2.20;;;;;;;19.58;56.35;102161.34;5069078;28;20379;-66
2022/08/29 10:44:36;;;;;;;4.43;2.33;;;;;;;19.68;54.21;102164.41;5068869;28;20687;-66
2022/08/29 10:47:21;;;;;;;7.38;2.67;;;;;;;19.53;54.94;102164.72;5068887;28;20036;-66
2022/08/29 10:49:52;;;;;;;8.32;3.50;;;;;;;19.41;56.29;102161.09;5068800;28;20020;-66
2022/08/29 10:52:20;;;;;;;7.38;3.40;;;;;;;19.29;56.59;102155.63;5068940;28;20054;-66
2022/08/29 10:55:02;;;;;;;4.53;2.50;;;;;;;19.31;57.25;102158.94;5068950;28;20912;-66
2022/08/29 10:57:55;;;;;;;3.60;1.98;;;;;;;19.63;58.07;102159.63;5068552;28;20392;-66
2022/08/29 11:00:27;;;;;;;4.30;2.10;;;;;;;19.89;55.39;102149.59;5068684;28;20028;-66
2022/08/29 11:03:11;;;;;;;4.20;2.92;;;;;;;20.05;54.84;102142.72;5068641;28;20116;-66
2022/08/29 11:05:48;;;;;;;4.40;2.55;;;;;;;20.16;55.20;102149.25;5068736;28;20383;-66
2022/08/29 11:08:24;;;;;;;6.10;2.53;;;;;;;20.14;55.06;102146.75;5068639;28;20494;-66
2022/08/29 11:10:51;;;;;;;7.18;2.63;;;;;;;20.12;54.22;102143.44;5068772;28;20103;-66
2022/08/29 11:13:28;;;;;;;5.35;2.15;;;;;;;20.17;54.81;102135.44;5072342;28;20024;-66
2022/08/29 11:16:01;;;;;;;5.72;3.17;;;;;;;20.08;53.77;102134.94;5072333;28;20023;-67
2022/08/29 11:18:45;;;;;;;5.72;2.35;;;;;;;19.86;55.05;102131.91;5072238;28;20097;-67
2022/08/29 11:21:29;;;;;;;6.13;2.50;;;;;;;20.01;54.94;102122.53;5072316;28;20031;-67
2022/08/29 11:23:57;;;;;;;6.03;2.80;;;;;;;20.32;54.57;102135.03;5072325;28;20032;-66
2022/08/29 11:26:28;;;;;;;4.53;2.70;;;;;;;20.50;53.50;102124.13;5072241;28;20059;-66
2022/08/29 11:28:57;;;;;;;10.48;3.03;;;;;;;20.66;53.27;102114.53;5072202;28;20021;-67
2022/08/29 11:31:41;;;;;;;4.95;2.63;;;;;;;20.85;55.53;102114.44;5071739;28;20392;-67